createdAt,value
2019-05-23T00:02:13.375Z,10.40
2019-05-23T00:06:28.717Z,10.30
2019-05-23T00:10:40.611Z,10.20
2019-05-23T00:14:54.594Z,10.20
2019-05-23T00:19:05.513Z,10.10
2019-05-23T00:23:16.886Z,10.00
2019-05-23T00:27:27.447Z,10.00
2019-05-23T00:31:41.163Z,9.90
2019-05-23T00:35:52.671Z,9.90
2019-05-23T00:40:03.890Z,9.90
2019-05-23T00:44:15.029Z,9.80
2019-05-23T00:48:26.292Z,9.90
2019-05-23T00:52:37.507Z,9.90
2019-05-23T00:56:48.031Z,10.00
2019-05-23T01:00:59.738Z,10.00
2019-05-23T01:05:10.391Z,9.90
2019-05-23T01:09:20.880Z,9.90
2019-05-23T01:13:31.110Z,9.90
2019-05-23T01:17:42.364Z,9.90
2019-05-23T01:21:58.195Z,10.00
2019-05-23T01:26:10.290Z,10.00
2019-05-23T01:30:22.397Z,10.10
2019-05-23T01:34:33.929Z,10.10
2019-05-23T01:38:44.124Z,10.10
2019-05-23T01:42:55.529Z,10.10
2019-05-23T01:47:06.064Z,10.10
2019-05-23T01:51:16.675Z,10.00
2019-05-23T01:55:27.250Z,10.00
2019-05-23T01:59:37.455Z,9.90
2019-05-23T02:03:48.290Z,9.90
2019-05-23T02:07:58.980Z,9.90
2019-05-23T02:12:10.736Z,9.80
2019-05-23T02:16:21.302Z,9.80
2019-05-23T02:20:31.845Z,9.80
2019-05-23T02:24:44.065Z,9.80
2019-05-23T02:28:55.288Z,9.80
2019-05-23T02:33:05.719Z,9.80
2019-05-23T02:37:23.659Z,9.80
2019-05-23T02:41:38.551Z,9.80
2019-05-23T02:45:52.831Z,9.90
2019-05-23T02:50:04.763Z,9.80
2019-05-23T02:54:16.185Z,9.80
2019-05-23T02:58:31.708Z,9.80
2019-05-23T03:02:49.166Z,9.80
2019-05-23T03:07:02.704Z,9.80
2019-05-23T03:11:29.696Z,9.80
2019-05-23T03:15:41.303Z,9.80
2019-05-23T03:19:54.307Z,9.80
2019-05-23T03:24:05.066Z,9.80
2019-05-23T03:28:16.412Z,9.80
2019-05-23T03:32:41.712Z,9.80
2019-05-23T03:36:53.443Z,9.80
2019-05-23T03:41:04.870Z,9.70
2019-05-23T03:45:16.957Z,9.70
2019-05-23T03:49:28.359Z,9.70
2019-05-23T03:53:39.832Z,9.80
2019-05-23T03:57:50.871Z,9.90
2019-05-23T04:02:02.226Z,10.00
2019-05-23T04:06:13.470Z,10.10
2019-05-23T04:10:24.853Z,10.30
2019-05-23T04:14:35.484Z,10.50
2019-05-23T04:18:45.881Z,10.80
2019-05-23T04:22:56.887Z,11.10
2019-05-23T04:27:07.352Z,11.10
2019-05-23T04:31:18.730Z,11.10
2019-05-23T04:35:29.090Z,11.20
2019-05-23T04:39:39.554Z,11.30
2019-05-23T04:43:49.955Z,11.30
2019-05-23T04:48:01.139Z,11.30
2019-05-23T04:52:11.477Z,11.60
2019-05-23T04:56:21.840Z,11.70
2019-05-23T05:00:34.261Z,12.10
2019-05-23T05:04:46.404Z,12.20
2019-05-23T05:08:57.449Z,12.20
2019-05-23T05:13:07.850Z,12.80
2019-05-23T05:17:19.799Z,13.60
2019-05-23T05:21:31.780Z,13.80
2019-05-23T05:25:42.095Z,14.20
2019-05-23T05:29:52.453Z,13.90
2019-05-23T05:34:03.014Z,14.00
2019-05-23T05:38:13.517Z,14.50
2019-05-23T05:42:24.044Z,15.10
2019-05-23T05:46:34.350Z,15.20
2019-05-23T05:50:45.208Z,15.10
2019-05-23T05:54:55.494Z,15.40
2019-05-23T05:59:05.973Z,15.70
2019-05-23T06:03:17.807Z,16.60
2019-05-23T06:07:32.752Z,17.10
2019-05-23T06:11:43.497Z,17.20
2019-05-23T06:15:54.211Z,17.10
2019-05-23T06:20:06.755Z,17.80
2019-05-23T06:24:17.227Z,18.20
2019-05-23T06:28:27.762Z,18.50
2019-05-23T06:32:38.469Z,18.70
2019-05-23T06:36:50.835Z,18.80
2019-05-23T06:41:04.773Z,18.50
2019-05-23T06:45:15.746Z,18.70
2019-05-23T06:49:26.813Z,19.40
2019-05-23T06:53:37.153Z,20.40
2019-05-23T06:57:47.639Z,20.40
2019-05-23T07:01:58.478Z,19.20
2019-05-23T07:06:10.951Z,18.80
2019-05-23T07:10:23.938Z,19.20
2019-05-23T07:14:34.465Z,19.50
2019-05-23T07:18:44.812Z,19.60
2019-05-23T07:22:55.422Z,19.60
2019-05-23T07:27:05.849Z,19.50
2019-05-23T07:31:16.761Z,19.60
2019-05-23T07:35:27.882Z,20.20
2019-05-23T07:39:38.505Z,20.50
2019-05-23T07:43:48.837Z,20.50
2019-05-23T07:47:59.565Z,20.70
2019-05-23T07:52:10.868Z,20.50
2019-05-23T07:56:25.281Z,19.90
2019-05-23T08:00:38.915Z,19.60
2019-05-23T08:04:51.810Z,20.20
2019-05-23T08:09:02.142Z,20.60
2019-05-23T08:13:12.411Z,20.30
2019-05-23T08:17:23.078Z,20.60
2019-05-23T08:21:33.446Z,20.90
2019-05-23T08:25:43.858Z,20.40
2019-05-23T08:29:54.860Z,21.10
2019-05-23T08:34:06.341Z,20.80
2019-05-23T08:38:16.963Z,20.50
2019-05-23T08:42:27.473Z,20.30
2019-05-23T08:46:41.399Z,20.30
2019-05-23T08:50:51.969Z,21.00
2019-05-23T08:55:05.321Z,21.00
2019-05-23T08:59:16.703Z,21.30
2019-05-23T09:03:27.801Z,20.40
2019-05-23T09:07:38.088Z,20.60
2019-05-23T09:11:48.461Z,20.60
2019-05-23T09:15:59.110Z,20.40
2019-05-23T09:20:11.585Z,21.10
2019-05-23T09:24:21.942Z,21.60
2019-05-23T09:28:32.549Z,21.60
2019-05-23T09:32:42.838Z,21.70
2019-05-23T09:36:53.317Z,22.30
2019-05-23T09:41:03.612Z,21.90
2019-05-23T09:45:13.892Z,21.80
2019-05-23T09:49:24.618Z,22.20
2019-05-23T09:53:35.226Z,21.90
2019-05-23T09:57:45.956Z,21.40
2019-05-23T10:01:57.287Z,22.00
2019-05-23T10:06:07.653Z,22.00
2019-05-23T10:10:18.691Z,21.90
2019-05-23T10:14:40.180Z,22.10
2019-05-23T10:18:53.235Z,22.30
2019-05-23T10:23:05.836Z,22.50
2019-05-23T10:27:16.326Z,22.90
2019-05-23T10:31:27.083Z,22.40
2019-05-23T10:35:38.262Z,21.90
2019-05-23T10:39:51.656Z,21.90
2019-05-23T10:44:01.932Z,21.90
2019-05-23T10:48:13.949Z,22.00
2019-05-23T10:52:24.177Z,22.00
2019-05-23T10:56:34.704Z,21.90
2019-05-23T11:00:47.446Z,21.60
2019-05-23T11:04:58.688Z,21.80
2019-05-23T11:09:10.867Z,21.60
2019-05-23T11:13:22.984Z,21.80
2019-05-23T11:17:34.176Z,21.90
2019-05-23T11:21:44.476Z,22.10
2019-05-23T11:25:56.124Z,21.90
2019-05-23T11:30:10.707Z,21.60
2019-05-23T11:34:21.375Z,21.70
2019-05-23T11:38:33.558Z,21.40
2019-05-23T11:42:44.733Z,21.50
2019-05-23T11:46:55.641Z,21.30
2019-05-23T11:51:05.816Z,21.60
2019-05-23T11:55:16.414Z,21.80
2019-05-23T11:59:27.183Z,21.80
2019-05-23T12:03:38.038Z,21.80
2019-05-23T12:07:48.520Z,21.90
2019-05-23T12:11:58.986Z,22.20
2019-05-23T12:16:10.724Z,21.90
2019-05-23T12:20:21.385Z,21.30
2019-05-23T12:24:35.259Z,21.30
2019-05-23T12:28:43.689Z,21.50
2019-05-23T12:32:53.988Z,21.40
2019-05-23T12:37:18.435Z,21.30
2019-05-23T12:41:16.552Z,21.40
2019-05-23T12:45:26.891Z,21.30
2019-05-23T12:49:39.424Z,21.50
2019-05-23T12:53:50.051Z,21.60
2019-05-23T12:58:00.357Z,21.30
2019-05-23T13:02:12.413Z,21.50
2019-05-23T13:06:22.744Z,21.20
2019-05-23T13:10:33.406Z,21.10
2019-05-23T13:14:43.760Z,21.30
2019-05-23T13:18:54.090Z,21.10
2019-05-23T13:23:04.713Z,21.00
2019-05-23T13:27:15.207Z,20.90
2019-05-23T13:31:25.587Z,20.80
2019-05-23T13:35:36.049Z,20.90
2019-05-23T13:39:46.556Z,21.10
2019-05-23T13:43:57.402Z,21.20
2019-05-23T13:48:07.876Z,21.60
2019-05-23T13:52:18.298Z,21.50
2019-05-23T13:56:28.597Z,21.40
2019-05-23T14:00:39.575Z,21.20
2019-05-23T14:04:50.760Z,21.30
2019-05-23T14:09:01.069Z,21.20
2019-05-23T14:13:13.550Z,21.10
2019-05-23T14:17:34.434Z,20.90
2019-05-23T14:21:44.795Z,21.10
2019-05-23T14:25:55.474Z,21.00
2019-05-23T14:30:22.806Z,21.10
2019-05-23T14:34:34.266Z,21.20
2019-05-23T14:38:46.158Z,21.40
2019-05-23T14:42:58.085Z,21.30
2019-05-23T14:47:18.639Z,21.20
2019-05-23T14:51:40.229Z,21.20
2019-05-23T14:55:50.553Z,21.00
2019-05-23T15:00:00.894Z,21.00
2019-05-23T15:04:11.403Z,21.00
2019-05-23T15:08:21.831Z,21.00
2019-05-23T15:12:32.167Z,21.20
2019-05-23T15:16:42.567Z,21.20
2019-05-23T15:20:52.927Z,21.30
2019-05-23T15:25:05.385Z,21.50
2019-05-23T15:29:15.732Z,21.40
2019-05-23T15:33:26.178Z,21.10
2019-05-23T15:37:36.501Z,21.00
2019-05-23T15:41:46.930Z,20.90
2019-05-23T15:45:57.240Z,20.80
2019-05-23T15:50:11.471Z,20.90
2019-05-23T15:54:39.434Z,20.90
2019-05-23T15:58:51.524Z,20.90
2019-05-23T16:03:06.370Z,20.90
2019-05-23T16:07:17.253Z,20.80
2019-05-23T16:11:29.168Z,20.80
2019-05-23T16:15:39.758Z,20.80
2019-05-23T16:19:50.243Z,20.80
2019-05-23T16:24:01.229Z,20.70
2019-05-23T16:28:11.733Z,20.70
2019-05-23T16:32:22.152Z,20.90
2019-05-23T16:36:32.380Z,20.80
2019-05-23T16:40:43.145Z,20.70
2019-05-23T16:44:53.446Z,20.70
2019-05-23T16:49:04.331Z,20.60
2019-05-23T16:53:14.685Z,20.50
2019-05-23T16:57:35.737Z,20.40
2019-05-23T17:01:57.954Z,20.50
2019-05-23T17:06:11.792Z,20.20
2019-05-23T17:10:23.700Z,20.10
2019-05-23T17:14:35.795Z,20.00
2019-05-23T17:18:51.274Z,19.90
2019-05-23T17:23:03.321Z,19.90
2019-05-23T17:27:34.428Z,19.90
2019-05-23T17:31:48.023Z,19.80
2019-05-23T17:36:00.099Z,19.70
2019-05-23T17:40:24.214Z,19.70
2019-05-23T17:44:27.991Z,19.80
2019-05-23T17:48:41.037Z,19.80
2019-05-23T17:52:55.047Z,19.60
2019-05-23T17:57:06.631Z,19.60
2019-05-23T18:01:17.965Z,19.50
2019-05-23T18:05:30.145Z,19.40
2019-05-23T18:09:41.244Z,19.40
2019-05-23T18:13:51.640Z,19.40
2019-05-23T18:18:02.171Z,19.30
2019-05-23T18:22:16.080Z,19.30
2019-05-23T18:26:28.056Z,19.20
2019-05-23T18:30:52.184Z,19.00
2019-05-23T18:35:03.930Z,19.00
2019-05-23T18:39:17.273Z,19.00
2019-05-23T18:43:29.326Z,18.90
2019-05-23T18:47:41.229Z,18.90
2019-05-23T18:51:53.178Z,18.90
2019-05-23T18:56:05.070Z,18.70
2019-05-23T19:00:16.105Z,18.50
2019-05-23T19:04:26.715Z,18.30
2019-05-23T19:08:37.109Z,18.20
2019-05-23T19:12:47.425Z,18.30
2019-05-23T19:16:58.195Z,18.30
2019-05-23T19:21:10.445Z,18.20
2019-05-23T19:25:21.219Z,18.20
2019-05-23T19:29:32.067Z,17.90
2019-05-23T19:33:42.406Z,17.60
2019-05-23T19:37:52.996Z,17.50
2019-05-23T19:42:03.355Z,17.40
2019-05-23T19:46:13.647Z,17.30
2019-05-23T19:50:24.189Z,17.20
2019-05-23T19:54:34.626Z,17.10
2019-05-23T19:58:45.231Z,16.90
2019-05-23T20:02:59.293Z,16.90
2019-05-23T20:07:09.680Z,16.70
2019-05-23T20:11:20.582Z,16.60
2019-05-23T20:15:31.419Z,16.40
2019-05-23T20:19:41.917Z,16.30
2019-05-23T20:23:52.416Z,16.30
2019-05-23T20:28:02.788Z,16.40
2019-05-23T20:32:13.465Z,16.40
2019-05-23T20:36:23.887Z,16.20
2019-05-23T20:40:35.552Z,16.10
2019-05-23T20:44:47.897Z,16.10
2019-05-23T20:48:58.385Z,16.00
2019-05-23T20:53:08.884Z,15.80
2019-05-23T20:57:19.479Z,15.80
2019-05-23T21:01:34.396Z,15.60
2019-05-23T21:05:45.451Z,15.50
2019-05-23T21:09:55.844Z,15.60
2019-05-23T21:14:07.884Z,15.60
2019-05-23T21:18:18.285Z,15.60
2019-05-23T21:22:28.956Z,15.40
2019-05-23T21:26:39.542Z,15.40
2019-05-23T21:30:50.411Z,15.40
2019-05-23T21:35:00.751Z,15.00
2019-05-23T21:39:12.726Z,14.90
2019-05-23T21:43:23.951Z,14.90
2019-05-23T21:47:34.444Z,14.80
2019-05-23T21:51:44.758Z,14.80
2019-05-23T21:55:55.259Z,14.80
2019-05-23T22:00:08.939Z,14.80
2019-05-23T22:04:21.675Z,14.70
2019-05-23T22:08:32.582Z,14.60
2019-05-23T22:12:43.000Z,14.40
2019-05-23T22:16:54.152Z,14.30
2019-05-23T22:21:04.551Z,14.20
2019-05-23T22:25:18.059Z,14.20
2019-05-23T22:29:28.390Z,14.20
2019-05-23T22:33:44.920Z,14.20
2019-05-23T22:37:55.583Z,14.20
2019-05-23T22:42:06.793Z,14.20
2019-05-23T22:46:17.562Z,14.10
2019-05-23T22:50:28.014Z,14.00
2019-05-23T22:54:38.938Z,14.00
2019-05-23T22:58:49.363Z,13.90
2019-05-23T23:02:59.864Z,13.80
2019-05-23T23:07:10.417Z,13.80
2019-05-23T23:11:21.756Z,13.70
2019-05-23T23:15:32.695Z,13.60
2019-05-23T23:19:43.240Z,13.50
2019-05-23T23:23:55.239Z,13.50
2019-05-23T23:28:05.853Z,13.40
2019-05-23T23:32:16.173Z,13.40
2019-05-23T23:36:26.498Z,13.40
2019-05-23T23:40:37.841Z,13.30
2019-05-23T23:44:48.408Z,13.30
2019-05-23T23:49:16.617Z,13.20
2019-05-23T23:53:44.509Z,13.20
2019-05-23T23:58:00.272Z,13.10
